sensor_id;sensor_type;location;lat;lon;timestamp;pressure;altitude;pressure_sealevel;temperature;humidity
49945;BME280;35838;49.134;9.212;2024-03-06T00:01:00;99976.34;;;6.90;100.00
49945;BME280;35838;49.134;9.212;2024-03-06T00:02:34;99975.50;;;6.92;100.00
49945;BME280;35838;49.134;9.212;2024-03-06T00:04:08;99979.88;;;7.00;100.00
49945;BME280;35838;49.134;9.212;2024-03-06T00:05:39;99978.16;;;7.01;100.00
49945;BME280;35838;49.134;9.212;2024-03-06T00:07:12;99978.13;;;6.96;100.00
49945;BME280;35838;49.134;9.212;2024-03-06T00:08:43;99973.75;;;6.92;100.00
49945;BME280;35838;49.134;9.212;2024-03-06T00:10:17;99978.06;;;6.93;100.00
49945;BME280;35838;49.134;9.212;2024-03-06T00:11:48;99985.81;;;6.92;100.00
49945;BME280;35838;49.134;9.212;2024-03-06T00:13:23;99978.88;;;6.87;100.00
49945;BME280;35838;49.134;9.212;2024-03-06T00:14:53;99971.16;;;6.90;100.00
49945;BME280;35838;49.134;9.212;2024-03-06T00:16:27;99972.91;;;6.92;100.00
49945;BME280;35838;49.134;9.212;2024-03-06T00:18:01;99972.97;;;6.98;100.00
49945;BME280;35838;49.134;9.212;2024-03-06T00:19:35;99971.28;;;7.01;100.00
49945;BME280;35838;49.134;9.212;2024-03-06T00:21:06;99978.97;;;6.97;100.00
49945;BME280;35838;49.134;9.212;2024-03-06T00:22:40;99982.41;;;6.97;100.00
49945;BME280;35838;49.134;9.212;2024-03-06T00:24:14;99976.34;;;6.92;100.00
49945;BME280;35838;49.134;9.212;2024-03-06T00:25:45;99983.19;;;6.88;100.00
49945;BME280;35838;49.134;9.212;2024-03-06T00:27:19;99977.97;;;6.85;100.00
49945;BME280;35838;49.134;9.212;2024-03-06T00:28:50;99984.84;;;6.85;100.00
49945;BME280;35838;49.134;9.212;2024-03-06T00:30:23;99987.44;;;6.85;100.00
49945;BME280;35838;49.134;9.212;2024-03-06T00:31:54;99987.41;;;6.83;100.00
49945;BME280;35838;49.134;9.212;2024-03-06T00:33:32;99993.38;;;6.81;100.00
49945;BME280;35838;49.134;9.212;2024-03-06T00:35:03;99991.59;;;6.73;100.00
49945;BME280;35838;49.134;9.212;2024-03-06T00:36:37;99992.50;;;6.77;100.00
49945;BME280;35838;49.134;9.212;2024-03-06T00:38:08;99985.59;;;6.76;100.00
49945;BME280;35838;49.134;9.212;2024-03-06T00:39:42;99992.41;;;6.71;100.00
49945;BME280;35838;49.134;9.212;2024-03-06T00:41:13;99990.72;;;6.73;100.00
49945;BME280;35838;49.134;9.212;2024-03-06T00:42:47;99995.03;;;6.74;100.00
49945;BME280;35838;49.134;9.212;2024-03-06T00:44:18;99990.69;;;6.71;100.00
49945;BME280;35838;49.134;9.212;2024-03-06T00:45:51;99992.41;;;6.71;100.00
49945;BME280;35838;49.134;9.212;2024-03-06T00:47:22;99995.84;;;6.70;100.00
49945;BME280;35838;49.134;9.212;2024-03-06T00:48:59;99989.00;;;6.72;100.00
49945;BME280;35838;49.134;9.212;2024-03-06T00:50:30;99988.16;;;6.73;100.00
49945;BME280;35838;49.134;9.212;2024-03-06T00:52:03;99997.69;;;6.80;100.00
49945;BME280;35838;49.134;9.212;2024-03-06T00:53:37;100000.28;;;6.79;100.00
49945;BME280;35838;49.134;9.212;2024-03-06T00:55:09;100000.28;;;6.79;100.00
49945;BME280;35838;49.134;9.212;2024-03-06T00:56:43;100001.16;;;6.82;100.00
49945;BME280;35838;49.134;9.212;2024-03-06T00:58:14;100004.63;;;6.84;100.00
49945;BME280;35838;49.134;9.212;2024-03-06T00:59:47;100007.13;;;6.80;100.00
49945;BME280;35838;49.134;9.212;2024-03-06T01:01:21;100010.53;;;6.76;100.00
49945;BME280;35838;49.134;9.212;2024-03-06T01:02:52;100005.38;;;6.76;100.00
49945;BME280;35838;49.134;9.212;2024-03-06T01:04:29;100004.59;;;6.83;100.00
49945;BME280;35838;49.134;9.212;2024-03-06T01:06:00;100005.56;;;6.91;100.00
49945;BME280;35838;49.134;9.212;2024-03-06T01:07:33;100008.13;;;6.89;100.00
49945;BME280;35838;49.134;9.212;2024-03-06T01:09:05;100003.00;;;6.93;100.00
49945;BME280;35838;49.134;9.212;2024-03-06T01:10:38;100011.56;;;6.90;100.00
49945;BME280;35838;49.134;9.212;2024-03-06T01:12:12;100008.97;;;6.87;100.00
49945;BME280;35838;49.134;9.212;2024-03-06T01:13:46;100008.09;;;6.86;100.00
49945;BME280;35838;49.134;9.212;2024-03-06T01:15:17;100006.41;;;6.87;100.00
49945;BME280;35838;49.134;9.212;2024-03-06T01:16:51;99998.47;;;6.74;100.00
49945;BME280;35838;49.134;9.212;2024-03-06T01:18:24;99995.97;;;6.79;100.00
49945;BME280;35838;49.134;9.212;2024-03-06T01:19:58;100004.53;;;6.77;100.00
49945;BME280;35838;49.134;9.212;2024-03-06T01:21:34;100000.28;;;6.79;100.00
49945;BME280;35838;49.134;9.212;2024-03-06T01:23:07;100000.22;;;6.76;100.00
49945;BME280;35838;49.134;9.212;2024-03-06T01:24:39;100005.44;;;6.79;100.00
49945;BME280;35838;49.134;9.212;2024-03-06T01:26:12;100002.84;;;6.80;100.00
49945;BME280;35838;49.134;9.212;2024-03-06T01:27:43;100003.69;;;6.78;100.00
49945;BME280;35838;49.134;9.212;2024-03-06T01:29:17;100006.22;;;6.76;100.00
49945;BME280;35838;49.134;9.212;2024-03-06T01:30:48;100009.75;;;6.83;100.00
49945;BME280;35838;49.134;9.212;2024-03-06T01:32:22;100000.34;;;6.85;100.00
49945;BME280;35838;49.134;9.212;2024-03-06T01:33:53;100008.94;;;6.85;100.00
49945;BME280;35838;49.134;9.212;2024-03-06T01:35:29;99998.53;;;6.79;100.00
49945;BME280;35838;49.134;9.212;2024-03-06T01:37:00;100012.34;;;6.81;100.00
49945;BME280;35838;49.134;9.212;2024-03-06T01:38:34;100006.28;;;6.79;100.00
49945;BME280;35838;49.134;9.212;2024-03-06T01:40:05;100006.34;;;6.82;100.00
49945;BME280;35838;49.134;9.212;2024-03-06T01:41:44;100002.94;;;6.86;100.00
49945;BME280;35838;49.134;9.212;2024-03-06T01:43:21;100000.28;;;6.83;100.00
49945;BME280;35838;49.134;9.212;2024-03-06T01:44:53;99997.72;;;6.82;100.00
49945;BME280;35838;49.134;9.212;2024-03-06T01:46:26;100001.19;;;6.85;100.00
49945;BME280;35838;49.134;9.212;2024-03-06T01:47:57;100003.75;;;6.84;100.00
49945;BME280;35838;49.134;9.212;2024-03-06T01:49:31;100004.59;;;6.81;100.00
49945;BME280;35838;49.134;9.212;2024-03-06T01:51:05;100002.88;;;6.83;100.00
49945;BME280;35838;49.134;9.212;2024-03-06T01:52:39;100006.28;;;6.79;100.00
49945;BME280;35838;49.134;9.212;2024-03-06T01:54:10;100005.47;;;6.83;100.00
49945;BME280;35838;49.134;9.212;2024-03-06T01:55:44;100004.59;;;6.81;100.00
49945;BME280;35838;49.134;9.212;2024-03-06T01:57:16;100001.91;;;6.75;100.00
49945;BME280;35838;49.134;9.212;2024-03-06T01:58:50;100004.50;;;6.75;100.00
49945;BME280;35838;49.134;9.212;2024-03-06T02:00:21;100001.06;;;6.73;100.00
49945;BME280;35838;49.134;9.212;2024-03-06T02:01:55;100003.53;;;6.67;100.00
49945;BME280;35838;49.134;9.212;2024-03-06T02:03:26;100007.00;;;6.67;100.00
49945;BME280;35838;49.134;9.212;2024-03-06T02:05:00;100006.03;;;6.61;100.00
49945;BME280;35838;49.134;9.212;2024-03-06T02:06:34;100012.03;;;6.59;100.00
49945;BME280;35838;49.134;9.212;2024-03-06T02:08:08;100003.34;;;6.53;100.00
49945;BME280;35838;49.134;9.212;2024-03-06T02:09:39;100006.78;;;6.52;100.00
49945;BME280;35838;49.134;9.212;2024-03-06T02:11:13;100011.19;;;6.61;100.00
49945;BME280;35838;49.134;9.212;2024-03-06T02:12:46;100003.34;;;6.53;100.00
49945;BME280;35838;49.134;9.212;2024-03-06T02:14:20;100004.16;;;6.50;100.00
49945;BME280;35838;49.134;9.212;2024-03-06T02:15:51;100007.66;;;6.54;100.00
49945;BME280;35838;49.134;9.212;2024-03-06T02:17:24;100006.88;;;6.59;100.00
49945;BME280;35838;49.134;9.212;2024-03-06T02:18:56;100007.69;;;6.55;100.00
49945;BME280;35838;49.134;9.212;2024-03-06T02:20:32;99994.75;;;6.54;100.00
49945;BME280;35838;49.134;9.212;2024-03-06T02:22:05;100009.44;;;6.59;100.00
49945;BME280;35838;49.134;9.212;2024-03-06T02:23:38;100007.66;;;6.54;100.00
49945;BME280;35838;49.134;9.212;2024-03-06T02:25:09;100007.56;;;6.46;100.00
49945;BME280;35838;49.134;9.212;2024-03-06T02:26:45;100007.50;;;6.43;100.00
49945;BME280;35838;49.134;9.212;2024-03-06T02:28:16;100009.09;;;6.35;100.00
49945;BME280;35838;49.134;9.212;2024-03-06T02:29:50;100011.56;;;6.27;100.00
49945;BME280;35838;49.134;9.212;2024-03-06T02:31:21;100010.72;;;6.26;100.00
49945;BME280;35838;49.134;9.212;2024-03-06T02:32:55;100016.78;;;6.32;100.00
49945;BME280;35838;49.134;9.212;2024-03-06T02:34:26;100016.06;;;6.39;100.00
49945;BME280;35838;49.134;9.212;2024-03-06T02:36:03;100011.75;;;6.41;100.00
49945;BME280;35838;49.134;9.212;2024-03-06T02:37:36;100005.75;;;6.39;100.00
49945;BME280;35838;49.134;9.212;2024-03-06T02:39:10;100010.94;;;6.42;100.00
49945;BME280;35838;49.134;9.212;2024-03-06T02:40:42;100000.66;;;6.45;100.00
49945;BME280;35838;49.134;9.212;2024-03-06T02:42:16;100010.22;;;6.51;100.00
49945;BME280;35838;49.134;9.212;2024-03-06T02:43:47;100007.50;;;6.43;100.00
49945;BME280;35838;49.134;9.212;2024-03-06T02:45:21;100006.59;;;6.38;100.00
49945;BME280;35838;49.134;9.212;2024-03-06T02:46:52;100006.59;;;6.38;100.00
49945;BME280;35838;49.134;9.212;2024-03-06T02:48:26;100008.34;;;6.40;100.00
49945;BME280;35838;49.134;9.212;2024-03-06T02:49:59;100004.09;;;6.44;100.00
49945;BME280;35838;49.134;9.212;2024-03-06T02:51:33;100004.16;;;6.50;100.00
49945;BME280;35838;49.134;9.212;2024-03-06T02:53:07;100002.34;;;6.43;100.00
49945;BME280;35838;49.134;9.212;2024-03-06T02:54:40;100005.84;;;6.48;100.00
49945;BME280;35838;49.134;9.212;2024-03-06T02:56:15;99998.03;;;6.43;100.00
49945;BME280;35838;49.134;9.212;2024-03-06T02:57:46;100001.53;;;6.46;100.00
49945;BME280;35838;49.134;9.212;2024-03-06T02:59:20;100001.44;;;6.41;100.00
49945;BME280;35838;49.134;9.212;2024-03-06T03:00:51;100005.75;;;6.39;100.00
49945;BME280;35838;49.134;9.212;2024-03-06T03:02:24;100003.91;;;6.32;100.00
49945;BME280;35838;49.134;9.212;2024-03-06T03:03:55;100008.97;;;6.27;100.00
49945;BME280;35838;49.134;9.212;2024-03-06T03:05:29;100009.81;;;6.26;100.00
49945;BME280;35838;49.134;9.212;2024-03-06T03:07:03;100002.97;;;6.26;100.00
49945;BME280;35838;49.134;9.212;2024-03-06T03:08:36;100013.28;;;6.28;100.00
49945;BME280;35838;49.134;9.212;2024-03-06T03:10:08;100003.03;;;6.31;100.00
49945;BME280;35838;49.134;9.212;2024-03-06T03:11:43;100004.75;;;6.31;100.00
49945;BME280;35838;49.134;9.212;2024-03-06T03:13:14;100004.78;;;6.34;100.00
49945;BME280;35838;49.134;9.212;2024-03-06T03:14:47;100005.69;;;6.36;100.00
49945;BME280;35838;49.134;9.212;2024-03-06T03:16:19;100003.09;;;6.34;100.00
49945;BME280;35838;49.134;9.212;2024-03-06T03:17:52;99995.25;;;6.26;100.00
49945;BME280;35838;49.134;9.212;2024-03-06T03:19:23;99997.81;;;6.26;100.00
49945;BME280;35838;49.134;9.212;2024-03-06T03:20:57;100001.38;;;6.33;100.00
49945;BME280;35838;49.134;9.212;2024-03-06T03:22:31;100002.22;;;6.34;100.00
49945;BME280;35838;49.134;9.212;2024-03-06T03:24:04;100000.44;;;6.30;100.00
49945;BME280;35838;49.134;9.212;2024-03-06T03:25:39;100009.88;;;6.31;100.00
49945;BME280;35838;49.134;9.212;2024-03-06T03:27:10;100013.34;;;6.31;100.00
49945;BME280;35838;49.134;9.212;2024-03-06T03:28:44;100020.28;;;6.35;100.00
49945;BME280;35838;49.134;9.212;2024-03-06T03:30:16;100024.50;;;6.29;100.00
49945;BME280;35838;49.134;9.212;2024-03-06T03:31:52;100022.72;;;6.26;100.00
49945;BME280;35838;49.134;9.212;2024-03-06T03:33:23;100020.13;;;6.26;100.00
49945;BME280;35838;49.134;9.212;2024-03-06T03:34:57;100023.47;;;6.19;100.00
49945;BME280;35838;49.134;9.212;2024-03-06T03:36:28;100021.78;;;6.21;100.00
49945;BME280;35838;49.134;9.212;2024-03-06T03:38:04;100032.84;;;6.15;100.00
49945;BME280;35838;49.134;9.212;2024-03-06T03:39:35;100024.38;;;6.22;100.00
49945;BME280;35838;49.134;9.212;2024-03-06T03:41:09;100033.09;;;6.31;100.00
49945;BME280;35838;49.134;9.212;2024-03-06T03:42:40;100027.94;;;6.31;100.00
49945;BME280;35838;49.134;9.212;2024-03-06T03:44:14;100027.94;;;6.31;100.00
49945;BME280;35838;49.134;9.212;2024-03-06T03:45:45;100028.00;;;6.34;100.00
49945;BME280;35838;49.134;9.212;2024-03-06T03:47:19;100019.38;;;6.32;100.00
49945;BME280;35838;49.134;9.212;2024-03-06T03:48:50;100026.09;;;6.20;100.00
49945;BME280;35838;49.134;9.212;2024-03-06T03:50:23;100027.53;;;6.03;100.00
49945;BME280;35838;49.134;9.212;2024-03-06T03:51:54;100019.63;;;5.96;100.00
49945;BME280;35838;49.134;9.212;2024-03-06T03:53:31;100018.91;;;6.01;100.00
49945;BME280;35838;49.134;9.212;2024-03-06T03:55:02;100015.50;;;6.03;100.00
49945;BME280;35838;49.134;9.212;2024-03-06T03:56:36;100019.81;;;6.04;100.00
49945;BME280;35838;49.134;9.212;2024-03-06T03:58:07;100019.03;;;6.10;100.00
49945;BME280;35838;49.134;9.212;2024-03-06T03:59:40;100019.91;;;6.10;100.00
49945;BME280;35838;49.134;9.212;2024-03-06T04:01:11;100019.97;;;6.15;100.00
49945;BME280;35838;49.134;9.212;2024-03-06T04:02:45;100029.53;;;6.22;100.00
49945;BME280;35838;49.134;9.212;2024-03-06T04:04:16;100028.69;;;6.22;100.00
49945;BME280;35838;49.134;9.212;2024-03-06T04:05:50;100025.28;;;6.24;100.00
49945;BME280;35838;49.134;9.212;2024-03-06T04:07:21;100028.75;;;6.28;100.00
49945;BME280;35838;49.134;9.212;2024-03-06T04:08:57;100022.78;;;6.31;100.00
49945;BME280;35838;49.134;9.212;2024-03-06T04:10:31;100027.13;;;6.33;100.00
49945;BME280;35838;49.134;9.212;2024-03-06T04:12:02;100030.41;;;6.21;100.00
49945;BME280;35838;49.134;9.212;2024-03-06T04:13:36;100030.34;;;6.20;100.00
49945;BME280;35838;49.134;9.212;2024-03-06T04:15:08;100039.75;;;6.16;100.00
49945;BME280;35838;49.134;9.212;2024-03-06T04:16:41;100035.41;;;6.14;100.00
49945;BME280;35838;49.134;9.212;2024-03-06T04:18:12;100037.13;;;6.13;100.00
49945;BME280;35838;49.134;9.212;2024-03-06T04:19:46;100041.34;;;6.08;100.00
49945;BME280;35838;49.134;9.212;2024-03-06T04:21:18;100046.50;;;6.09;100.00
49945;BME280;35838;49.134;9.212;2024-03-06T04:22:53;100049.09;;;6.09;100.00
49945;BME280;35838;49.134;9.212;2024-03-06T04:24:26;100045.75;;;6.15;100.00
49945;BME280;35838;49.134;9.212;2024-03-06T04:26:00;100046.72;;;6.23;100.00
49945;BME280;35838;49.134;9.212;2024-03-06T04:27:31;100051.94;;;6.26;100.00
49945;BME280;35838;49.134;9.212;2024-03-06T04:29:05;100047.69;;;6.30;100.00
49945;BME280;35838;49.134;9.212;2024-03-06T04:30:38;100052.94;;;6.36;100.00
49945;BME280;35838;49.134;9.212;2024-03-06T04:32:09;100050.44;;;6.41;100.00
49945;BME280;35838;49.134;9.212;2024-03-06T04:33:43;100054.78;;;6.43;100.00
49945;BME280;35838;49.134;9.212;2024-03-06T04:35:14;100057.34;;;6.42;100.00
49945;BME280;35838;49.134;9.212;2024-03-06T04:36:48;100058.25;;;6.46;100.00
49945;BME280;35838;49.134;9.212;2024-03-06T04:38:21;100062.56;;;6.45;100.00
49945;BME280;35838;49.134;9.212;2024-03-06T04:39:55;100070.25;;;6.43;100.00
49945;BME280;35838;49.134;9.212;2024-03-06T04:41:29;100068.50;;;6.41;100.00
49945;BME280;35838;49.134;9.212;2024-03-06T04:43:02;100064.25;;;6.45;100.00
49945;BME280;35838;49.134;9.212;2024-03-06T04:44:33;100066.81;;;6.43;100.00
49945;BME280;35838;49.134;9.212;2024-03-06T04:46:11;100060.88;;;6.47;100.00
49945;BME280;35838;49.134;9.212;2024-03-06T04:47:43;100065.91;;;6.41;100.00
49945;BME280;35838;49.134;9.212;2024-03-06T04:49:16;100071.88;;;6.38;100.00
49945;BME280;35838;49.134;9.212;2024-03-06T04:50:47;100069.31;;;6.40;100.00
49945;BME280;35838;49.134;9.212;2024-03-06T04:52:22;100069.31;;;6.37;100.00
49945;BME280;35838;49.134;9.212;2024-03-06T04:53:53;100065.84;;;6.36;100.00
49945;BME280;35838;49.134;9.212;2024-03-06T04:55:29;100068.31;;;6.29;100.00
49945;BME280;35838;49.134;9.212;2024-03-06T04:57:01;100075.28;;;6.34;100.00
49945;BME280;35838;49.134;9.212;2024-03-06T04:58:35;100076.19;;;6.38;100.00
49945;BME280;35838;49.134;9.212;2024-03-06T05:00:09;100075.34;;;6.39;100.00
49945;BME280;35838;49.134;9.212;2024-03-06T05:01:40;100083.13;;;6.42;100.00
49945;BME280;35838;49.134;9.212;2024-03-06T05:03:15;100084.91;;;6.46;100.00
49945;BME280;35838;49.134;9.212;2024-03-06T05:04:46;100079.75;;;6.46;100.00
49945;BME280;35838;49.134;9.212;2024-03-06T05:06:20;100089.94;;;6.40;100.00
49945;BME280;35838;49.134;9.212;2024-03-06T05:07:52;100095.22;;;6.46;100.00
49945;BME280;35838;49.134;9.212;2024-03-06T05:09:26;100085.69;;;6.42;100.00
49945;BME280;35838;49.134;9.212;2024-03-06T05:11:00;100086.53;;;6.39;100.00
49945;BME280;35838;49.134;9.212;2024-03-06T05:12:33;100088.34;;;6.45;100.00
49945;BME280;35838;49.134;9.212;2024-03-06T05:14:05;100084.78;;;6.40;100.00
49945;BME280;35838;49.134;9.212;2024-03-06T05:15:38;100085.69;;;6.40;100.00
49945;BME280;35838;49.134;9.212;2024-03-06T05:17:09;100088.28;;;6.42;100.00
49945;BME280;35838;49.134;9.212;2024-03-06T05:18:43;100092.53;;;6.40;100.00
49945;BME280;35838;49.134;9.212;2024-03-06T05:20:15;100095.03;;;6.34;100.00
49945;BME280;35838;49.134;9.212;2024-03-06T05:21:49;100096.69;;;6.32;100.00
49945;BME280;35838;49.134;9.212;2024-03-06T05:23:20;100095.75;;;6.25;100.00
49945;BME280;35838;49.134;9.212;2024-03-06T05:24:54;100092.31;;;6.26;100.00
49945;BME280;35838;49.134;9.212;2024-03-06T05:26:28;100101.00;;;6.31;100.00
49945;BME280;35838;49.134;9.212;2024-03-06T05:28:01;100101.00;;;6.33;100.00
49945;BME280;35838;49.134;9.212;2024-03-06T05:29:33;100103.66;;;6.36;100.00
49945;BME280;35838;49.134;9.212;2024-03-06T05:31:15;100101.09;;;6.37;100.00
49945;BME280;35838;49.134;9.212;2024-03-06T05:32:46;100108.88;;;6.39;100.00
49945;BME280;35838;49.134;9.212;2024-03-06T05:34:20;100113.19;;;6.41;100.00
49945;BME280;35838;49.134;9.212;2024-03-06T05:35:51;100109.81;;;6.44;100.00
49945;BME280;35838;49.134;9.212;2024-03-06T05:37:25;100119.22;;;6.42;100.00
49945;BME280;35838;49.134;9.212;2024-03-06T05:38:56;100120.09;;;6.42;100.00
49945;BME280;35838;49.134;9.212;2024-03-06T05:40:29;100119.28;;;6.45;100.00
49945;BME280;35838;49.134;9.212;2024-03-06T05:42:08;100126.91;;;6.39;100.00
49945;BME280;35838;49.134;9.212;2024-03-06T05:43:41;100126.91;;;6.39;100.00
49945;BME280;35838;49.134;9.212;2024-03-06T05:45:12;100127.69;;;6.35;100.00
49945;BME280;35838;49.134;9.212;2024-03-06T05:46:46;100126.09;;;6.41;100.00
49945;BME280;35838;49.134;9.212;2024-03-06T05:48:17;100128.69;;;6.43;100.00
49945;BME280;35838;49.134;9.212;2024-03-06T05:49:51;100124.44;;;6.45;100.00
49945;BME280;35838;49.134;9.212;2024-03-06T05:51:22;100127.88;;;6.46;100.00
49945;BME280;35838;49.134;9.212;2024-03-06T05:52:55;100130.50;;;6.47;100.00
49945;BME280;35838;49.134;9.212;2024-03-06T05:54:28;100124.47;;;6.48;100.00
49945;BME280;35838;49.134;9.212;2024-03-06T05:56:04;100126.94;;;6.40;100.00
49945;BME280;35838;49.134;9.212;2024-03-06T05:57:39;100136.91;;;6.20;100.00
49945;BME280;35838;49.134;9.212;2024-03-06T05:59:16;100132.59;;;6.19;100.00
49945;BME280;35838;49.134;9.212;2024-03-06T06:00:47;100139.44;;;6.17;100.00
49945;BME280;35838;49.134;9.212;2024-03-06T06:02:21;100133.53;;;6.24;100.00
49945;BME280;35838;49.134;9.212;2024-03-06T06:03:52;100135.09;;;6.16;100.00
49945;BME280;35838;49.134;9.212;2024-03-06T06:05:26;100144.25;;;6.00;100.00
49945;BME280;35838;49.134;9.212;2024-03-06T06:06:57;100139.25;;;6.06;100.00
49945;BME280;35838;49.134;9.212;2024-03-06T06:08:31;100143.69;;;6.15;100.00
49945;BME280;35838;49.134;9.212;2024-03-06T06:10:06;100147.19;;;6.19;100.00
49945;BME280;35838;49.134;9.212;2024-03-06T06:11:40;100151.50;;;6.20;100.00
49945;BME280;35838;49.134;9.212;2024-03-06T06:13:16;100152.47;;;6.25;100.00
49945;BME280;35838;49.134;9.212;2024-03-06T06:14:50;100147.41;;;6.33;100.00
49945;BME280;35838;49.134;9.212;2024-03-06T06:16:21;100158.63;;;6.35;100.00
49945;BME280;35838;49.134;9.212;2024-03-06T06:17:55;100161.28;;;6.38;100.00
49945;BME280;35838;49.134;9.212;2024-03-06T06:19:26;100170.66;;;6.34;100.00
49945;BME280;35838;49.134;9.212;2024-03-06T06:20:59;100169.03;;;6.41;100.00
49945;BME280;35838;49.134;9.212;2024-03-06T06:22:30;100172.47;;;6.40;100.00
49945;BME280;35838;49.134;9.212;2024-03-06T06:24:05;100169.69;;;6.29;100.00
49945;BME280;35838;49.134;9.212;2024-03-06T06:25:36;100166.38;;;6.36;100.00
49945;BME280;35838;49.134;9.212;2024-03-06T06:27:10;100179.41;;;6.44;100.00
49945;BME280;35838;49.134;9.212;2024-03-06T06:28:44;100174.34;;;6.50;100.00
49945;BME280;35838;49.134;9.212;2024-03-06T06:30:18;100175.34;;;6.58;100.00
49945;BME280;35838;49.134;9.212;2024-03-06T06:31:49;100175.25;;;6.52;100.00
49945;BME280;35838;49.134;9.212;2024-03-06T06:33:22;100170.03;;;6.48;100.00
49945;BME280;35838;49.134;9.212;2024-03-06T06:34:53;100172.66;;;6.51;100.00
49945;BME280;35838;49.134;9.212;2024-03-06T06:36:28;100188.16;;;6.54;100.00
49945;BME280;35838;49.134;9.212;2024-03-06T06:38:00;100178.75;;;6.54;100.00
49945;BME280;35838;49.134;9.212;2024-03-06T06:39:35;100185.66;;;6.57;100.00
49945;BME280;35838;49.134;9.212;2024-03-06T06:41:06;100189.06;;;6.54;100.00
49945;BME280;35838;49.134;9.212;2024-03-06T06:42:44;100188.81;;;6.42;100.00
49945;BME280;35838;49.134;9.212;2024-03-06T06:44:17;100188.91;;;6.45;100.00
49945;BME280;35838;49.134;9.212;2024-03-06T06:45:51;100191.50;;;6.48;100.00
49945;BME280;35838;49.134;9.212;2024-03-06T06:47:22;100190.75;;;6.54;100.00
49945;BME280;35838;49.134;9.212;2024-03-06T06:48:55;100195.13;;;6.56;100.00
49945;BME280;35838;49.134;9.212;2024-03-06T06:50:26;100191.72;;;6.59;100.00
49945;BME280;35838;49.134;9.212;2024-03-06T06:52:02;100192.66;;;6.66;100.00
49945;BME280;35838;49.134;9.212;2024-03-06T06:53:33;100197.88;;;6.67;100.00
49945;BME280;35838;49.134;9.212;2024-03-06T06:55:06;100193.56;;;6.68;100.00
49945;BME280;35838;49.134;9.212;2024-03-06T06:56:40;100190.13;;;6.69;100.00
49945;BME280;35838;49.134;9.212;2024-03-06T06:58:13;100204.03;;;6.77;100.00
49945;BME280;35838;49.134;9.212;2024-03-06T06:59:47;100204.03;;;6.77;100.00
49945;BME280;35838;49.134;9.212;2024-03-06T07:01:20;100198.00;;;6.77;100.00
49945;BME280;35838;49.134;9.212;2024-03-06T07:02:52;100205.69;;;6.73;100.00
49945;BME280;35838;49.134;9.212;2024-03-06T07:04:29;100208.25;;;6.72;100.00
49945;BME280;35838;49.134;9.212;2024-03-06T07:06:02;100210.84;;;6.72;100.00
49945;BME280;35838;49.134;9.212;2024-03-06T07:07:34;100207.28;;;6.65;100.00
49945;BME280;35838;49.134;9.212;2024-03-06T07:09:08;100202.13;;;6.65;100.00
49945;BME280;35838;49.134;9.212;2024-03-06T07:10:40;100209.84;;;6.65;100.00
49945;BME280;35838;49.134;9.212;2024-03-06T07:12:13;100202.13;;;6.67;100.00
49945;BME280;35838;49.134;9.212;2024-03-06T07:13:44;100209.94;;;6.71;100.00
49945;BME280;35838;49.134;9.212;2024-03-06T07:15:21;100212.50;;;6.68;100.00
49945;BME280;35838;49.134;9.212;2024-03-06T07:16:52;100208.34;;;6.77;100.00
49945;BME280;35838;49.134;9.212;2024-03-06T07:18:25;100211.81;;;6.79;100.00
49945;BME280;35838;49.134;9.212;2024-03-06T07:19:56;100209.25;;;6.82;100.00
49945;BME280;35838;49.134;9.212;2024-03-06T07:21:30;100205.84;;;6.84;100.00
49945;BME280;35838;49.134;9.212;2024-03-06T07:23:01;100213.66;;;6.87;100.00
49945;BME280;35838;49.134;9.212;2024-03-06T07:24:35;100212.00;;;6.91;100.00
49945;BME280;35838;49.134;9.212;2024-03-06T07:26:06;100216.25;;;6.87;100.00
49945;BME280;35838;49.134;9.212;2024-03-06T07:27:39;100220.47;;;6.84;100.00
49945;BME280;35838;49.134;9.212;2024-03-06T07:29:10;100220.50;;;6.85;100.00
49945;BME280;35838;49.134;9.212;2024-03-06T07:30:48;100214.59;;;6.93;100.00
49945;BME280;35838;49.134;9.212;2024-03-06T07:32:20;100219.59;;;6.83;100.00
49945;BME280;35838;49.134;9.212;2024-03-06T07:33:53;100228.31;;;6.90;100.00
49945;BME280;35838;49.134;9.212;2024-03-06T07:35:24;100224.72;;;6.79;100.00
49945;BME280;35838;49.134;9.212;2024-03-06T07:36:58;100224.47;;;6.65;100.00
49945;BME280;35838;49.134;9.212;2024-03-06T07:38:30;100226.91;;;6.57;100.00
49945;BME280;35838;49.134;9.212;2024-03-06T07:40:04;100223.56;;;6.63;100.00
49945;BME280;35838;49.134;9.212;2024-03-06T07:41:35;100231.41;;;6.69;100.00
49945;BME280;35838;49.134;9.212;2024-03-06T07:43:09;100228.91;;;6.72;100.00
49945;BME280;35838;49.134;9.212;2024-03-06T07:44:42;100236.66;;;6.75;100.00
49945;BME280;35838;49.134;9.212;2024-03-06T07:46:16;100231.56;;;6.78;100.00
49945;BME280;35838;49.134;9.212;2024-03-06T07:47:50;100238.53;;;6.82;100.00
49945;BME280;35838;49.134;9.212;2024-03-06T07:49:21;100231.72;;;6.87;100.00
49945;BME280;35838;49.134;9.212;2024-03-06T07:50:55;100233.53;;;6.92;100.00
49945;BME280;35838;49.134;9.212;2024-03-06T07:52:28;100242.09;;;6.90;100.00
49945;BME280;35838;49.134;9.212;2024-03-06T07:53:59;100241.97;;;6.84;100.00
49945;BME280;35838;49.134;9.212;2024-03-06T07:55:34;100242.13;;;6.92;100.00
49945;BME280;35838;49.134;9.212;2024-03-06T07:57:05;100242.25;;;7.00;100.00
49945;BME280;35838;49.134;9.212;2024-03-06T07:58:40;100248.31;;;7.03;100.00
49945;BME280;35838;49.134;9.212;2024-03-06T08:00:11;100247.34;;;6.97;100.00
49945;BME280;35838;49.134;9.212;2024-03-06T08:01:52;100249.94;;;6.98;100.00
49945;BME280;35838;49.134;9.212;2024-03-06T08:03:23;100243.94;;;6.98;100.00
49945;BME280;35838;49.134;9.212;2024-03-06T08:04:57;100249.75;;;6.86;100.00
49945;BME280;35838;49.134;9.212;2024-03-06T08:06:29;100251.34;;;6.78;100.00